Time;durP1;ratioP1;P1;durP2;ratioP2;P2;SDS_P1;SDS_P2;PMS_P1;PMS_P2;Temp;Humidity;BMP_temperature;BMP_pressure;BME280_temperature;BME280_humidity;BME280_pressure;Samples;Min_cycle;Max_cycle;Signal;HPM_P1;HPM_P2
2024/01/07 00:00:05;;;;;;;7.33;4.70;;;3.30;99.90;;;;;;5002591;28;20434;-67
2024/01/07 00:02:33;;;;;;;7.47;3.80;;;3.30;99.90;;;;;;5002476;28;20433;-67
2024/01/07 00:05:01;;;;;;;8.63;3.90;;;3.20;99.90;;;;;;5001182;28;20809;-67
2024/01/07 00:07:28;;;;;;;5.83;3.63;;;3.20;99.90;;;;;;5003019;28;20439;-67
2024/01/07 00:09:55;;;;;;;6.47;3.83;;;3.20;99.90;;;;;;5007678;28;20477;-67
2024/01/07 00:12:21;;;;;;;2.73;1.80;;;3.30;99.90;;;;;;5002271;28;20496;-67
2024/01/07 00:14:48;;;;;;;7.90;4.50;;;3.30;99.90;;;;;;5005990;28;20480;-68
2024/01/07 00:17:15;;;;;;;10.20;6.47;;;3.30;99.90;;;;;;4988448;28;20462;-67
2024/01/07 00:19:43;;;;;;;5.33;4.40;;;3.40;99.90;;;;;;5005226;28;20424;-67
2024/01/07 00:22:09;;;;;;;7.40;4.17;;;3.30;99.90;;;;;;5004795;28;20425;-68
2024/01/07 00:24:36;;;;;;;3.30;3.03;;;3.30;99.90;;;;;;5003832;28;20470;-67
2024/01/07 00:27:03;;;;;;;3.00;2.37;;;3.20;99.90;;;;;;5002520;28;20450;-67
2024/01/07 00:29:30;;;;;;;3.30;3.00;;;3.10;99.90;;;;;;5007362;28;20459;-68
2024/01/07 00:31:57;;;;;;;6.60;3.80;;;3.10;99.90;;;;;;4997970;28;20428;-67
2024/01/07 00:34:23;;;;;;;5.57;3.43;;;3.10;99.90;;;;;;5009263;28;20523;-67
2024/01/07 00:36:51;;;;;;;12.23;6.47;;;3.20;99.90;;;;;;5004686;28;20943;-68
2024/01/07 00:39:18;;;;;;;10.63;4.80;;;3.20;99.90;;;;;;4999835;28;20425;-68
2024/01/07 00:41:47;;;;;;;14.30;4.67;;;3.20;99.90;;;;;;4999272;28;20476;-67
2024/01/07 00:44:14;;;;;;;9.57;4.87;;;3.20;99.90;;;;;;5001631;28;20456;-67
2024/01/07 00:46:41;;;;;;;7.43;4.20;;;3.20;99.90;;;;;;5001914;28;20448;-67
2024/01/07 00:49:07;;;;;;;8.03;3.50;;;3.10;99.90;;;;;;5003379;28;20851;-67
2024/01/07 00:51:34;;;;;;;12.37;5.80;;;3.20;99.90;;;;;;5003277;28;20465;-67
2024/01/07 00:54:02;;;;;;;11.23;6.43;;;3.30;99.90;;;;;;5004912;28;21007;-67
2024/01/07 00:56:29;;;;;;;7.87;4.10;;;3.40;99.90;;;;;;4997800;28;20511;-67
2024/01/07 00:58:56;;;;;;;11.90;5.73;;;3.40;99.90;;;;;;5003511;28;20444;-68
2024/01/07 01:01:23;;;;;;;10.47;5.83;;;3.50;99.90;;;;;;4989129;28;20465;-68
2024/01/07 01:03:49;;;;;;;9.40;6.07;;;3.40;99.90;;;;;;5002258;28;20485;-66
2024/01/07 01:06:16;;;;;;;8.73;5.33;;;3.40;99.90;;;;;;5006168;28;20472;-67
2024/01/07 01:08:43;;;;;;;7.60;4.87;;;3.30;99.90;;;;;;5008340;28;20794;-67
2024/01/07 01:11:11;;;;;;;9.47;5.33;;;3.20;99.90;;;;;;5001375;28;20461;-67
2024/01/07 01:13:38;;;;;;;14.30;5.33;;;3.20;99.90;;;;;;5004993;28;20975;-68
2024/01/07 01:16:05;;;;;;;10.30;4.37;;;3.20;99.90;;;;;;5005777;28;20431;-67
2024/01/07 01:18:32;;;;;;;11.80;5.80;;;3.20;99.90;;;;;;5006311;28;20455;-67
2024/01/07 01:20:58;;;;;;;3.47;2.23;;;3.20;99.90;;;;;;5007314;28;20444;-67
2024/01/07 01:23:25;;;;;;;11.33;5.53;;;3.00;99.90;;;;;;5003526;28;20461;-66
2024/01/07 01:25:52;;;;;;;18.07;6.00;;;3.00;99.90;;;;;;5000455;28;20425;-68
2024/01/07 01:28:20;;;;;;;20.03;5.07;;;3.10;99.90;;;;;;5005817;28;20464;-67
2024/01/07 01:30:47;;;;;;;10.37;5.67;;;3.20;99.90;;;;;;5000840;28;20485;-67
2024/01/07 01:33:13;;;;;;;8.10;5.60;;;3.20;99.90;;;;;;5005278;28;20955;-66
2024/01/07 01:35:40;;;;;;;10.77;6.00;;;3.20;99.90;;;;;;5007178;28;20465;-68
2024/01/07 01:38:07;;;;;;;4.87;3.50;;;3.00;99.90;;;;;;5007536;28;20432;-67
2024/01/07 01:40:34;;;;;;;7.10;4.50;;;2.80;99.90;;;;;;4996959;28;20465;-68
2024/01/07 01:43:01;;;;;;;11.33;4.70;;;2.80;99.90;;;;;;4995847;28;20476;-68
2024/01/07 01:45:29;;;;;;;9.13;6.10;;;2.90;99.90;;;;;;5002219;28;20485;-67
2024/01/07 01:47:56;;;;;;;6.53;4.50;;;2.80;99.90;;;;;;5003185;28;20427;-67
2024/01/07 01:50:23;;;;;;;11.77;6.20;;;2.50;99.90;;;;;;5005382;28;20513;-67
2024/01/07 01:52:50;;;;;;;7.33;4.30;;;2.60;99.90;;;;;;5003240;28;20473;-67
2024/01/07 01:55:18;;;;;;;7.47;4.90;;;2.40;99.90;;;;;;5005556;28;20531;-67
2024/01/07 01:57:47;;;;;;;10.23;4.50;;;2.50;99.90;;;;;;5005199;28;20461;-67
2024/01/07 02:00:14;;;;;;;6.93;3.87;;;2.60;99.90;;;;;;5005536;28;20459;-66
2024/01/07 02:02:42;;;;;;;11.60;7.70;;;2.70;99.90;;;;;;5004003;28;21151;-66
2024/01/07 02:05:09;;;;;;;12.70;5.23;;;2.70;99.90;;;;;;5007581;28;20443;-67
2024/01/07 02:07:36;;;;;;;5.23;3.47;;;2.60;99.90;;;;;;5003406;28;20436;-67
2024/01/07 02:10:03;;;;;;;6.43;4.40;;;2.50;99.90;;;;;;5004232;28;20460;-67
2024/01/07 02:12:31;;;;;;;17.70;7.20;;;2.60;99.90;;;;;;5001271;28;20455;-67
2024/01/07 02:14:57;;;;;;;8.07;4.10;;;2.50;99.90;;;;;;4997011;28;20771;-67
2024/01/07 02:17:24;;;;;;;11.50;5.97;;;2.60;99.90;;;;;;5001282;28;20570;-67
2024/01/07 02:19:52;;;;;;;6.03;4.17;;;2.70;99.90;;;;;;5002938;28;20449;-67
2024/01/07 02:22:19;;;;;;;8.20;5.67;;;2.80;99.90;;;;;;4995831;28;20475;-66
2024/01/07 02:24:47;;;;;;;11.07;6.47;;;2.80;99.90;;;;;;5002707;28;20833;-67
2024/01/07 02:27:14;;;;;;;9.50;4.10;;;2.90;99.90;;;;;;5004186;28;20435;-68
2024/01/07 02:29:41;;;;;;;5.80;4.43;;;2.80;99.90;;;;;;4998170;28;20489;-67
2024/01/07 02:32:07;;;;;;;7.23;3.93;;;2.60;99.90;;;;;;5001048;28;20963;-67
2024/01/07 02:34:34;;;;;;;6.07;5.50;;;2.60;99.90;;;;;;5000751;28;21335;-67
2024/01/07 02:37:01;;;;;;;7.80;5.17;;;2.70;99.90;;;;;;4989594;28;20436;-67
2024/01/07 02:39:27;;;;;;;7.33;4.30;;;2.60;99.90;;;;;;5000822;28;20432;-67
2024/01/07 02:41:57;;;;;;;4.43;3.33;;;2.50;99.90;;;;;;5003362;28;20468;-67
2024/01/07 02:44:23;;;;;;;5.90;5.03;;;2.60;99.90;;;;;;4998900;28;20447;-67
2024/01/07 02:46:50;;;;;;;5.83;5.23;;;2.50;99.90;;;;;;5002343;28;20435;-66
2024/01/07 02:49:17;;;;;;;9.47;4.07;;;2.50;99.90;;;;;;5001766;28;21083;-67
2024/01/07 02:51:45;;;;;;;7.63;3.70;;;2.60;99.90;;;;;;4997122;28;20462;-66
2024/01/07 02:54:12;;;;;;;11.03;7.27;;;2.70;99.90;;;;;;5004740;28;20452;-67
2024/01/07 02:56:39;;;;;;;2.23;2.03;;;2.60;99.90;;;;;;4999976;28;20564;-67
2024/01/07 02:59:07;;;;;;;10.03;4.73;;;2.60;99.90;;;;;;5005088;28;20474;-67
2024/01/07 03:01:39;;;;;;;12.23;5.20;;;2.60;99.90;;;;;;4994660;28;20417;-67
2024/01/07 03:04:06;;;;;;;8.57;5.60;;;2.70;99.90;;;;;;4995291;28;21756;-67
2024/01/07 03:06:33;;;;;;;8.47;5.30;;;2.80;99.90;;;;;;5002461;28;20428;-67
2024/01/07 03:09:00;;;;;;;8.23;7.50;;;2.80;99.90;;;;;;5002190;28;20428;-67
2024/01/07 03:11:27;;;;;;;4.90;4.50;;;2.90;99.90;;;;;;5000208;28;20463;-67
2024/01/07 03:13:53;;;;;;;6.40;4.97;;;2.90;99.90;;;;;;5003554;28;20943;-67
2024/01/07 03:16:22;;;;;;;6.17;5.73;;;2.60;99.90;;;;;;5003841;28;20462;-67
2024/01/07 03:18:49;;;;;;;4.30;3.47;;;2.70;99.90;;;;;;5007349;28;20962;-67
2024/01/07 03:21:20;;;;;;;10.80;3.73;;;2.90;99.90;;;;;;5002026;28;20445;-68
2024/01/07 03:23:47;;;;;;;8.07;5.40;;;2.80;99.90;;;;;;5003766;28;20486;-67
2024/01/07 03:26:14;;;;;;;9.07;4.33;;;2.60;99.90;;;;;;5009616;28;20432;-67
2024/01/07 03:28:41;;;;;;;6.90;6.40;;;2.60;99.90;;;;;;5005804;28;20457;-67
2024/01/07 03:31:10;;;;;;;1.30;1.20;;;2.60;99.90;;;;;;5005000;28;20477;-67
2024/01/07 03:33:39;;;;;;;7.07;4.27;;;2.50;99.90;;;;;;5002521;28;20459;-67
2024/01/07 03:36:08;;;;;;;6.30;3.73;;;2.40;99.90;;;;;;5007947;28;20442;-67
2024/01/07 03:38:35;;;;;;;5.30;3.30;;;2.50;99.90;;;;;;5006852;28;20428;-67
2024/01/07 03:41:01;;;;;;;4.00;3.70;;;2.40;99.90;;;;;;5004290;28;20460;-67
2024/01/07 03:43:28;;;;;;;5.33;4.13;;;2.30;99.90;;;;;;5008895;28;20428;-67
2024/01/07 03:45:55;;;;;;;12.73;5.90;;;2.20;99.90;;;;;;5003581;28;20435;-67
2024/01/07 03:48:22;;;;;;;9.00;5.43;;;2.20;99.90;;;;;;5006453;28;20435;-67
2024/01/07 03:50:50;;;;;;;8.00;5.87;;;2.30;99.90;;;;;;5009640;28;20461;-67
2024/01/07 03:53:17;;;;;;;5.50;4.00;;;2.40;99.90;;;;;;5003052;28;22142;-67
2024/01/07 03:55:43;;;;;;;6.00;3.90;;;2.40;99.90;;;;;;5000878;28;20436;-67
2024/01/07 03:58:10;;;;;;;9.47;5.03;;;2.30;99.90;;;;;;5003170;28;20948;-67
2024/01/07 04:00:37;;;;;;;5.50;3.90;;;2.30;99.90;;;;;;5007315;28;20562;-68
2024/01/07 04:03:04;;;;;;;6.27;4.47;;;2.30;99.90;;;;;;5005480;28;21169;-68
2024/01/07 04:05:33;;;;;;;7.90;4.20;;;2.30;99.90;;;;;;5003650;28;20469;-68
2024/01/07 04:08:01;;;;;;;5.63;3.33;;;2.30;99.90;;;;;;5004975;28;20545;-67
2024/01/07 04:10:28;;;;;;;10.90;5.07;;;2.40;99.90;;;;;;5008593;28;20421;-67
2024/01/07 04:12:54;;;;;;;8.87;4.63;;;2.30;99.90;;;;;;5005908;28;20436;-67
2024/01/07 04:15:21;;;;;;;4.40;4.00;;;2.40;99.90;;;;;;5009884;28;20440;-67
2024/01/07 04:17:48;;;;;;;6.23;2.83;;;2.40;99.90;;;;;;5002392;28;20457;-67
2024/01/07 04:20:15;;;;;;;10.13;4.97;;;2.40;99.90;;;;;;5008438;28;20463;-68
2024/01/07 04:22:42;;;;;;;9.43;5.70;;;2.40;99.90;;;;;;5002330;28;20839;-67
2024/01/07 04:25:10;;;;;;;7.83;5.30;;;2.30;99.90;;;;;;5008257;28;20456;-68
2024/01/07 04:27:37;;;;;;;6.13;4.50;;;2.40;99.90;;;;;;5011990;28;20490;-67
2024/01/07 04:30:05;;;;;;;6.67;4.33;;;2.40;99.90;;;;;;5011383;28;20499;-67
2024/01/07 04:32:32;;;;;;;7.53;3.30;;;2.30;99.90;;;;;;5005657;28;20458;-67
2024/01/07 04:34:59;;;;;;;8.63;5.60;;;2.30;99.90;;;;;;5006321;28;20456;-67
2024/01/07 04:37:25;;;;;;;13.43;7.47;;;2.20;99.90;;;;;;5003659;28;20476;-67
2024/01/07 04:39:52;;;;;;;6.43;4.40;;;2.20;99.90;;;;;;5003814;28;20427;-67
2024/01/07 04:42:20;;;;;;;4.63;3.37;;;2.30;99.90;;;;;;5004623;28;20436;-67
2024/01/07 04:44:47;;;;;;;3.23;2.93;;;2.20;99.90;;;;;;5003812;28;20488;-68
2024/01/07 04:47:30;;;;;;;9.23;4.93;;;2.20;99.90;;;;;;5001230;28;20512;-67
2024/01/07 04:49:57;;;;;;;9.30;4.30;;;2.10;99.90;;;;;;5004707;28;21222;-67
2024/01/07 04:52:24;;;;;;;14.67;5.67;;;2.10;99.90;;;;;;5006266;28;20449;-68
2024/01/07 04:54:52;;;;;;;6.20;4.77;;;2.00;99.90;;;;;;5004608;28;20461;-67
2024/01/07 04:57:20;;;;;;;4.47;2.70;;;2.10;99.90;;;;;;5001677;28;20490;-67
2024/01/07 04:59:48;;;;;;;9.23;4.13;;;2.10;99.90;;;;;;5005357;28;20439;-67
2024/01/07 05:02:14;;;;;;;7.70;4.27;;;1.90;99.90;;;;;;5004829;28;20457;-70
2024/01/07 05:04:42;;;;;;;11.17;5.03;;;2.00;99.90;;;;;;5004048;28;20480;-67
2024/01/07 05:07:09;;;;;;;6.27;3.97;;;1.90;99.90;;;;;;5006420;28;21056;-67
2024/01/07 05:09:35;;;;;;;3.27;2.70;;;1.90;99.90;;;;;;5003881;28;20446;-69
2024/01/07 05:12:02;;;;;;;9.40;6.27;;;2.00;99.90;;;;;;5002589;28;20453;-67
2024/01/07 05:14:30;;;;;;;8.20;5.77;;;2.00;99.90;;;;;;5005742;28;20440;-68
2024/01/07 05:16:57;;;;;;;6.90;4.70;;;2.00;99.90;;;;;;5000854;28;20466;-67
2024/01/07 05:19:24;;;;;;;9.63;4.30;;;2.00;99.90;;;;;;5005258;28;20457;-67
2024/01/07 05:21:50;;;;;;;7.83;5.03;;;1.90;99.90;;;;;;5007407;28;20977;-67
2024/01/07 05:24:17;;;;;;;5.70;4.60;;;2.00;99.90;;;;;;5012304;28;20463;-68
2024/01/07 05:26:45;;;;;;;5.60;4.10;;;2.00;99.90;;;;;;5009645;28;20431;-68
2024/01/07 05:29:12;;;;;;;3.73;2.27;;;2.00;99.90;;;;;;5007271;28;20427;-66
2024/01/07 05:31:41;;;;;;;11.10;6.00;;;2.00;99.90;;;;;;5005941;28;20444;-68
2024/01/07 05:34:08;;;;;;;7.93;5.00;;;2.00;99.90;;;;;;5003951;28;20471;-67
2024/01/07 05:36:35;;;;;;;10.40;3.73;;;2.00;99.90;;;;;;5000008;28;20420;-67
2024/01/07 05:39:02;;;;;;;4.83;4.47;;;2.00;99.90;;;;;;5002435;28;20475;-67
2024/01/07 05:41:29;;;;;;;7.87;5.63;;;2.00;99.90;;;;;;5004239;28;20461;-67
2024/01/07 05:43:55;;;;;;;3.00;2.67;;;1.90;99.90;;;;;;5007407;28;20476;-67
2024/01/07 05:46:22;;;;;;;5.23;3.13;;;1.90;99.90;;;;;;5004800;28;20763;-68
2024/01/07 05:48:50;;;;;;;9.47;5.03;;;1.90;99.90;;;;;;5005561;28;22334;-67
2024/01/07 05:51:17;;;;;;;12.57;6.33;;;1.90;99.90;;;;;;5001623;28;20443;-68
2024/01/07 05:53:45;;;;;;;8.53;5.80;;;2.00;99.90;;;;;;5005011;28;20611;-69
2024/01/07 05:56:12;;;;;;;3.53;2.70;;;2.00;99.90;;;;;;5001725;28;20462;-67
2024/01/07 05:58:38;;;;;;;5.10;3.40;;;2.00;99.90;;;;;;5001174;28;20993;-68
2024/01/07 06:01:07;;;;;;;10.80;5.43;;;1.90;99.90;;;;;;5005747;28;20463;-67
2024/01/07 06:03:34;;;;;;;2.20;1.67;;;1.90;99.90;;;;;;5005031;28;20428;-66
2024/01/07 06:06:02;;;;;;;7.53;4.43;;;1.80;99.90;;;;;;5001589;28;20449;-66
2024/01/07 06:08:29;;;;;;;4.80;3.67;;;1.70;99.90;;;;;;5003960;28;20443;-67
2024/01/07 06:10:55;;;;;;;8.83;6.30;;;1.60;99.90;;;;;;5004081;28;20435;-67
2024/01/07 06:13:22;;;;;;;5.77;4.37;;;1.80;99.90;;;;;;5004643;28;20906;-66
2024/01/07 06:15:49;;;;;;;4.13;3.30;;;1.70;99.90;;;;;;5001728;28;20461;-67
2024/01/07 06:18:15;;;;;;;10.10;4.93;;;1.70;99.90;;;;;;4999202;28;20887;-66
2024/01/07 06:20:42;;;;;;;7.70;5.67;;;1.70;99.90;;;;;;5002313;28;20467;-67
2024/01/07 06:23:10;;;;;;;6.73;4.20;;;1.80;99.90;;;;;;5001286;28;20829;-66
2024/01/07 06:25:37;;;;;;;7.17;5.23;;;1.80;99.90;;;;;;5005247;28;20481;-67
2024/01/07 06:28:04;;;;;;;5.50;4.60;;;1.90;99.90;;;;;;5002370;28;20441;-68
2024/01/07 06:30:31;;;;;;;5.50;3.07;;;2.10;99.90;;;;;;5003629;28;21136;-67
2024/01/07 06:32:57;;;;;;;6.40;3.37;;;1.90;99.90;;;;;;5006018;28;20473;-67
2024/01/07 06:35:24;;;;;;;11.90;6.40;;;1.60;99.90;;;;;;5004905;28;20969;-67
2024/01/07 06:37:51;;;;;;;7.73;4.60;;;1.80;99.90;;;;;;5003260;28;20446;-67
2024/01/07 06:40:19;;;;;;;3.90;3.00;;;1.80;99.90;;;;;;5002440;28;20475;-69
2024/01/07 06:42:47;;;;;;;5.03;4.50;;;1.80;99.90;;;;;;5002955;28;20416;-66
2024/01/07 06:45:14;;;;;;;12.27;4.97;;;1.80;99.90;;;;;;4998520;28;20527;-66
2024/01/07 06:47:41;;;;;;;11.10;6.03;;;1.70;99.90;;;;;;5001432;28;20827;-67
2024/01/07 06:50:09;;;;;;;13.67;5.10;;;1.70;99.90;;;;;;5005200;28;20432;-67
2024/01/07 06:52:35;;;;;;;2.67;2.47;;;1.80;99.90;;;;;;5001235;28;20428;-67
2024/01/07 06:55:02;;;;;;;5.83;5.23;;;1.80;99.90;;;;;;5004915;28;21215;-67
2024/01/07 06:57:30;;;;;;;7.03;3.90;;;1.70;99.90;;;;;;4998249;28;20428;-67
2024/01/07 06:59:57;;;;;;;5.27;4.80;;;1.90;99.90;;;;;;5004247;28;20447;-67
2024/01/07 07:02:24;;;;;;;5.70;3.10;;;1.90;99.90;;;;;;5000660;28;20489;-68
2024/01/07 07:04:51;;;;;;;2.73;2.10;;;2.00;99.90;;;;;;5004121;28;20444;-67
2024/01/07 07:07:18;;;;;;;6.20;4.50;;;1.90;99.90;;;;;;5002282;28;21320;-67
2024/01/07 07:09:45;;;;;;;7.13;4.10;;;1.80;99.90;;;;;;5001124;28;20457;-67
2024/01/07 07:12:13;;;;;;;5.20;3.83;;;1.70;99.90;;;;;;4998023;28;20975;-67
2024/01/07 07:14:41;;;;;;;1.50;1.40;;;1.70;99.90;;;;;;5003088;28;20463;-67
2024/01/07 07:17:08;;;;;;;5.63;4.77;;;1.60;99.90;;;;;;5006773;28;20453;-67
2024/01/07 07:19:34;;;;;;;5.00;3.23;;;1.50;99.90;;;;;;4999677;28;20462;-68
2024/01/07 07:22:01;;;;;;;9.10;6.30;;;1.50;99.90;;;;;;5002740;28;20612;-67
2024/01/07 07:24:28;;;;;;;3.60;3.30;;;1.50;99.90;;;;;;5006440;28;20460;-68
2024/01/07 07:26:55;;;;;;;4.50;3.90;;;1.60;99.90;;;;;;5005920;28;20456;-67
2024/01/07 07:29:21;;;;;;;5.37;4.87;;;1.60;99.90;;;;;;5006366;28;20431;-66
2024/01/07 07:31:49;;;;;;;4.97;2.93;;;1.50;99.90;;;;;;5007410;28;20978;-67
2024/01/07 07:34:16;;;;;;;5.20;4.57;;;1.50;99.90;;;;;;5005561;28;20497;-67
2024/01/07 07:36:44;;;;;;;11.03;6.60;;;1.50;99.90;;;;;;5006617;28;20456;-67
2024/01/07 07:39:13;;;;;;;10.10;4.63;;;1.40;99.90;;;;;;5003681;28;20431;-67
2024/01/07 07:41:40;;;;;;;4.43;4.13;;;1.40;99.90;;;;;;5008073;28;20496;-67
2024/01/07 07:44:06;;;;;;;9.23;5.20;;;1.40;99.90;;;;;;5005432;28;20479;-67
2024/01/07 07:46:33;;;;;;;6.23;3.50;;;1.50;99.90;;;;;;5006307;28;20462;-67
2024/01/07 07:49:02;;;;;;;6.20;3.93;;;1.50;99.90;;;;;;5008048;28;20472;-68
2024/01/07 07:51:29;;;;;;;8.43;4.57;;;1.50;99.90;;;;;;5008385;28;20537;-67
2024/01/07 07:53:55;;;;;;;12.00;6.20;;;1.40;99.90;;;;;;5009145;28;20508;-67
2024/01/07 07:56:25;;;;;;;4.83;4.23;;;1.30;99.90;;;;;;5009798;28;20453;-67
2024/01/07 07:58:52;;;;;;;5.30;3.17;;;1.40;99.90;;;;;;5007890;28;20466;-68
2024/01/07 08:01:19;;;;;;;4.77;3.57;;;1.40;99.90;;;;;;5009389;28;21162;-67
2024/01/07 08:03:46;;;;;;;4.70;3.70;;;1.30;99.90;;;;;;5007782;28;20477;-67
2024/01/07 08:06:14;;;;;;;7.60;4.17;;;1.30;99.90;;;;;;5003268;28;20878;-68
2024/01/07 08:08:41;;;;;;;6.50;3.47;;;1.50;99.90;;;;;;5003258;28;20457;-67
2024/01/07 08:11:09;;;;;;;6.63;3.27;;;1.50;99.90;;;;;;5008238;28;20480;-67
2024/01/07 08:13:37;;;;;;;6.60;4.40;;;1.40;99.90;;;;;;4987428;28;20453;-68
2024/01/07 08:16:05;;;;;;;2.80;2.60;;;1.40;99.90;;;;;;5009326;28;20450;-67
2024/01/07 08:18:31;;;;;;;4.27;2.47;;;1.40;99.90;;;;;;5004677;28;21058;-68
2024/01/07 08:20:58;;;;;;;5.20;4.73;;;1.30;99.90;;;;;;5006819;28;20440;-66
2024/01/07 08:23:26;;;;;;;3.50;3.30;;;1.30;99.90;;;;;;5004553;28;20444;-67
2024/01/07 08:25:53;;;;;;;2.33;1.43;;;1.10;99.90;;;;;;5010626;28;20461;-68
2024/01/07 08:28:21;;;;;;;5.03;4.40;;;1.10;99.90;;;;;;5010992;28;20459;-68
2024/01/07 08:30:48;;;;;;;3.47;1.90;;;1.10;99.90;;;;;;5009486;28;20483;-68
2024/01/07 08:33:15;;;;;;;3.23;2.93;;;1.30;99.90;;;;;;5005040;28;20473;-67
2024/01/07 08:35:42;;;;;;;9.17;8.27;;;1.20;99.90;;;;;;5004279;28;20493;-67
2024/01/07 08:38:09;;;;;;;4.07;3.73;;;1.20;99.90;;;;;;5005187;28;20444;-67
2024/01/07 08:40:37;;;;;;;7.60;5.83;;;1.30;99.90;;;;;;5010366;28;20416;-67
2024/01/07 08:43:04;;;;;;;3.60;3.30;;;1.30;99.90;;;;;;5007333;28;20485;-68
2024/01/07 08:45:30;;;;;;;6.10;3.30;;;1.30;99.90;;;;;;5008869;28;20455;-67
2024/01/07 08:47:57;;;;;;;2.50;2.30;;;1.40;99.90;;;;;;5004772;28;20571;-67
2024/01/07 08:50:24;;;;;;;6.67;4.47;;;1.40;99.90;;;;;;5007563;28;21047;-67
2024/01/07 08:52:50;;;;;;;4.43;2.53;;;1.20;99.90;;;;;;5004258;28;20424;-68
2024/01/07 08:55:17;;;;;;;2.83;2.60;;;0.90;99.90;;;;;;5010644;28;20467;-67
2024/01/07 08:57:48;;;;;;;1.70;1.60;;;0.90;99.90;;;;;;5006136;28;20458;-67
2024/01/07 09:00:16;;;;;;;2.47;2.27;;;1.10;99.90;;;;;;5006049;28;20420;-67
2024/01/07 09:02:43;;;;;;;6.70;4.80;;;1.00;99.90;;;;;;5008776;28;20486;-68
2024/01/07 09:05:11;;;;;;;6.60;3.07;;;1.00;99.90;;;;;;5005771;28;20485;-67
2024/01/07 09:07:38;;;;;;;8.90;3.30;;;1.00;99.90;;;;;;5005242;28;20432;-68
2024/01/07 09:10:10;;;;;;;7.17;2.53;;;1.00;99.90;;;;;;5003181;28;20439;-67
2024/01/07 09:12:37;;;;;;;4.20;2.63;;;0.90;99.90;;;;;;5010007;28;20572;-68
2024/01/07 09:15:07;;;;;;;6.10;2.87;;;0.90;99.90;;;;;;5006761;28;20443;-68
2024/01/07 09:17:35;;;;;;;13.10;4.07;;;1.00;99.90;;;;;;5000597;28;21584;-68
2024/01/07 09:20:04;;;;;;;3.13;2.80;;;1.00;99.90;;;;;;5003366;28;20484;-68
2024/01/07 09:22:31;;;;;;;2.30;2.03;;;1.00;99.90;;;;;;5003004;28;20456;-67
2024/01/07 09:24:57;;;;;;;1.50;1.40;;;1.10;99.90;;;;;;5005428;28;20821;-67
2024/01/07 09:27:24;;;;;;;6.80;1.67;;;1.10;99.90;;;;;;5001805;28;20464;-67
2024/01/07 09:29:51;;;;;;;5.10;2.93;;;1.10;99.90;;;;;;5002056;28;20449;-68
2024/01/07 09:32:19;;;;;;;8.47;5.07;;;1.10;99.90;;;;;;5006557;28;20552;-67
2024/01/07 09:34:46;;;;;;;2.73;2.07;;;1.00;99.90;;;;;;5004289;28;20447;-68
2024/01/07 09:37:13;;;;;;;2.20;2.00;;;1.10;99.90;;;;;;5002814;28;20472;-67
2024/01/07 09:39:40;;;;;;;4.00;2.97;;;1.20;99.90;;;;;;5001450;28;20817;-67
2024/01/07 09:42:11;;;;;;;1.40;1.17;;;1.30;99.90;;;;;;5000875;28;20481;-68
2024/01/07 09:44:38;;;;;;;10.10;6.00;;;1.40;99.90;;;;;;5003783;28;20493;-68
2024/01/07 09:47:06;;;;;;;3.53;2.70;;;1.30;99.90;;;;;;4999411;28;20435;-67
2024/01/07 09:49:34;;;;;;;5.23;2.60;;;1.20;99.90;;;;;;4994867;28;20480;-67
2024/01/07 09:52:03;;;;;;;1.57;1.47;;;1.10;99.90;;;;;;5000301;28;20449;-68
2024/01/07 09:54:30;;;;;;;2.93;2.50;;;1.00;99.90;;;;;;5002294;28;20460;-69
2024/01/07 09:59:30;;;;;;;2.73;2.10;;;1.00;99.90;;;;;;4974628;28;20433;-67
2024/01/07 10:01:57;;;;;;;1.77;1.43;;;1.10;99.90;;;;;;4971301;28;20466;-67
2024/01/07 10:04:24;;;;;;;3.40;2.27;;;1.30;99.90;;;;;;4981027;28;20457;-67
2024/01/07 10:06:54;;;;;;;1.73;1.60;;;1.10;99.90;;;;;;4983320;28;20831;-67
2024/01/07 10:09:23;;;;;;;1.13;0.93;;;1.00;99.90;;;;;;4982619;28;20468;-67
2024/01/07 10:11:50;;;;;;;1.83;1.17;;;1.00;99.90;;;;;;4982027;28;20456;-67
2024/01/07 10:14:17;;;;;;;4.53;3.30;;;1.00;99.90;;;;;;4981516;28;20478;-67
2024/01/07 10:16:44;;;;;;;1.47;1.37;;;1.00;99.90;;;;;;4976683;28;20458;-67
2024/01/07 10:19:10;;;;;;;2.13;1.90;;;1.00;99.90;;;;;;4979003;28;20573;-67
2024/01/07 10:21:37;;;;;;;2.77;2.57;;;1.00;99.90;;;;;;4978046;28;20425;-67
2024/01/07 10:24:13;;;;;;;1.50;1.20;;;1.00;99.90;;;;;;4977212;28;20457;-67
2024/01/07 10:26:40;;;;;;;1.17;1.07;;;1.00;99.90;;;;;;4979051;28;20476;-67
2024/01/07 10:29:08;;;;;;;4.53;1.90;;;1.00;99.90;;;;;;4979124;28;20444;-67
2024/01/07 10:31:35;;;;;;;3.20;2.90;;;1.00;99.90;;;;;;4982490;28;20463;-68
2024/01/07 10:34:03;;;;;;;1.77;1.67;;;1.20;99.90;;;;;;4981036;28;20586;-68
2024/01/07 10:36:31;;;;;;;2.40;2.20;;;1.00;99.90;;;;;;4981692;28;20829;-68
2024/01/07 10:38:58;;;;;;;4.80;1.87;;;0.90;99.90;;;;;;4980821;28;20951;-68
2024/01/07 10:41:28;;;;;;;2.13;2.03;;;0.80;99.90;;;;;;4979840;28;20473;-68
2024/01/07 10:43:55;;;;;;;1.10;1.00;;;0.80;99.90;;;;;;4980939;28;20461;-68
2024/01/07 10:46:22;;;;;;;3.90;2.87;;;0.80;99.90;;;;;;4975887;28;20861;-68
2024/01/07 10:48:55;;;;;;;1.50;1.40;;;0.90;99.90;;;;;;4978257;28;20440;-68
2024/01/07 10:51:23;;;;;;;6.60;2.63;;;0.90;99.90;;;;;;4981085;28;20432;-68
2024/01/07 10:53:54;;;;;;;1.70;1.60;;;1.10;99.90;;;;;;4981652;28;20464;-68
2024/01/07 10:56:24;;;;;;;0.90;0.80;;;1.20;99.90;;;;;;4980432;28;20444;-68
2024/01/07 10:58:53;;;;;;;1.93;1.73;;;1.20;99.90;;;;;;4982006;28;20456;-68
2024/01/07 11:01:21;;;;;;;1.73;1.63;;;1.20;99.90;;;;;;4985194;28;20497;-68
2024/01/07 11:03:58;;;;;;;2.67;1.90;;;1.20;99.90;;;;;;4979915;28;20452;-68
2024/01/07 11:06:32;;;;;;;1.80;1.30;;;1.20;99.90;;;;;;4980332;28;20437;-68
2024/01/07 11:09:04;;;;;;;2.03;1.00;;;1.00;99.90;;;;;;4980545;28;20457;-68
2024/01/07 11:11:41;;;;;;;2.60;1.77;;;0.90;99.90;;;;;;4984248;28;20435;-68
2024/01/07 11:14:36;;;;;;;1.33;1.20;;;0.90;99.90;;;;;;4983365;28;20480;-69
2024/01/07 11:17:04;;;;;;;2.60;1.30;;;1.10;99.90;;;;;;4984256;28;20461;-68
2024/01/07 11:19:31;;;;;;;23.13;2.80;;;1.10;99.90;;;;;;4983130;28;20438;-68
2024/01/07 11:22:27;;;;;;;1.67;1.20;;;1.10;99.90;;;;;;4986169;28;20455;-69
2024/01/07 11:24:55;;;;;;;2.33;2.13;;;1.20;99.90;;;;;;4987146;28;20453;-68
2024/01/07 11:27:23;;;;;;;2.30;1.50;;;1.00;99.90;;;;;;4978485;28;20445;-68
2024/01/07 11:29:57;;;;;;;7.10;1.83;;;1.00;99.90;;;;;;4983462;28;20452;-69
2024/01/07 11:32:26;;;;;;;1.77;1.60;;;1.00;99.90;;;;;;4984374;28;20456;-68
2024/01/07 11:34:53;;;;;;;2.33;2.07;;;0.90;99.90;;;;;;4985196;28;20576;-69
2024/01/07 11:37:21;;;;;;;2.50;1.87;;;0.90;99.90;;;;;;4985530;28;20489;-71
2024/01/07 11:39:50;;;;;;;2.33;1.70;;;1.10;99.90;;;;;;4982514;28;20440;-69
2024/01/07 11:42:17;;;;;;;1.83;1.40;;;1.10;99.90;;;;;;4976652;28;20941;-69
2024/01/07 11:44:48;;;;;;;2.70;2.40;;;1.10;99.90;;;;;;4981274;28;20461;-69
2024/01/07 11:47:16;;;;;;;1.30;1.10;;;1.00;99.90;;;;;;4986322;28;20446;-69
2024/01/07 11:49:43;;;;;;;3.00;2.20;;;1.10;99.90;;;;;;4982533;28;20437;-69
2024/01/07 11:52:10;;;;;;;3.37;1.47;;;1.20;99.90;;;;;;4979677;28;20947;-68
2024/01/07 11:54:38;;;;;;;2.10;1.63;;;1.00;99.90;;;;;;4992448;28;20577;-68
2024/01/07 11:57:05;;;;;;;1.63;1.40;;;0.90;99.90;;;;;;4987476;28;20437;-68
2024/01/07 11:59:32;;;;;;;1.60;1.50;;;0.70;99.90;;;;;;4984116;28;20468;-68
2024/01/07 12:02:01;;;;;;;1.43;1.33;;;0.80;99.90;;;;;;4985894;28;20450;-68
2024/01/07 12:04:29;;;;;;;1.83;1.73;;;0.70;99.90;;;;;;4989825;28;20555;-69
2024/01/07 12:06:56;;;;;;;2.40;2.20;;;0.80;99.90;;;;;;4984741;28;20433;-68
2024/01/07 12:09:23;;;;;;;3.70;3.50;;;0.70;99.90;;;;;;4973761;28;20441;-68
2024/01/07 12:11:50;;;;;;;4.13;3.13;;;0.80;99.90;;;;;;4982249;28;20456;-68
2024/01/07 12:14:17;;;;;;;1.80;1.63;;;0.80;99.90;;;;;;4986434;28;20461;-68
2024/01/07 12:16:44;;;;;;;45.40;4.03;;;0.80;99.90;;;;;;4982409;28;20458;-68
2024/01/07 12:19:11;;;;;;;2.53;1.50;;;0.70;99.90;;;;;;4986964;28;20933;-68
2024/01/07 12:21:40;;;;;;;2.40;2.20;;;0.80;99.90;;;;;;4985347;28;20432;-68
2024/01/07 12:24:07;;;;;;;2.03;1.70;;;0.80;99.90;;;;;;4983943;28;20448;-68
2024/01/07 12:26:33;;;;;;;3.37;1.63;;;0.90;99.90;;;;;;4984263;28;21002;-68
2024/01/07 12:29:03;;;;;;;1.73;1.53;;;1.00;99.90;;;;;;4983459;28;20440;-68
2024/01/07 12:31:30;;;;;;;2.13;1.47;;;1.20;99.90;;;;;;4985804;28;20534;-68
2024/01/07 12:33:57;;;;;;;2.00;1.10;;;1.30;99.90;;;;;;4986989;28;20513;-68
2024/01/07 12:36:24;;;;;;;4.00;1.17;;;1.10;99.90;;;;;;4979936;28;20454;-68
2024/01/07 12:38:54;;;;;;;2.73;2.20;;;1.00;99.90;;;;;;4975900;28;20449;-68
2024/01/07 12:41:22;;;;;;;4.20;2.07;;;1.10;99.90;;;;;;4982436;28;20428;-68
2024/01/07 12:43:48;;;;;;;1.70;1.60;;;1.20;99.90;;;;;;4973570;28;20551;-68
2024/01/07 12:46:15;;;;;;;4.50;2.00;;;1.10;99.90;;;;;;4981537;28;20448;-68
2024/01/07 12:48:42;;;;;;;0.93;0.83;;;0.90;99.90;;;;;;4976797;28;20437;-68
2024/01/07 12:51:09;;;;;;;1.97;1.20;;;0.70;99.90;;;;;;4975655;28;20471;-68
2024/01/07 12:53:35;;;;;;;2.03;1.57;;;0.70;99.90;;;;;;4981531;28;20578;-68
2024/01/07 12:56:04;;;;;;;1.30;1.07;;;0.80;99.90;;;;;;4989111;28;20440;-68
2024/01/07 12:58:31;;;;;;;1.57;1.00;;;0.80;99.90;;;;;;4982212;28;20429;-69